This is the latest recevied weather packets stored in our database for station/object KB4RFE. If no packets are shown the sender has not sent any weather packets the latest 1 day(s).
| Time | Temp. | Humidity | Pressure | Rain* | Wind** | Luminosity | Snow |
|---|---|---|---|---|---|---|---|
| 1778043909 | 20.56° C | 77% | 1019.5 hPa | 0 mm | 1.79 m/s, 236° | 0 W/m² | - |
| 1778043606 | 20.56° C | 76% | 1019.3 hPa | 0 mm | 0.89 m/s, 272° | 0 W/m² | - |
| 1778043302 | 21.11° C | 76% | 1019.5 hPa | 0 mm | 0.89 m/s, 259° | 0 W/m² | - |
| 1778042999 | 21.11° C | 76% | 1019.4 hPa | 0 mm | 3.13 m/s, 236° | 0 W/m² | - |
| 1778042698 | 21.11° C | 76% | 1019.7 hPa | 0 mm | 0.89 m/s, 271° | 0 W/m² | - |
| 1778042394 | 21.11° C | 76% | 1019.4 hPa | 0 mm | 0.89 m/s, 273° | 0 W/m² | - |
| 1778042091 | 21.11° C | 76% | 1019.5 hPa | 0 mm | 0.89 m/s, 251° | 0 W/m² | - |
| 1778041789 | 21.11° C | 75% | 1019.4 hPa | 0 mm | 1.79 m/s, 258° | 0 W/m² | - |
| 1778041488 | 21.11° C | 75% | 1019.4 hPa | 0 mm | 1.34 m/s, 257° | 0 W/m² | - |
| 1778041186 | 21.11° C | 75% | 1019.5 hPa | 0 mm | 0.89 m/s, 261° | 0 W/m² | - |
| 1778040884 | 21.11° C | 75% | 1019.4 hPa | 0 mm | 1.34 m/s, 259° | 0 W/m² | - |
| 1778040581 | 21.11° C | 76% | 1019.4 hPa | 0 mm | 0.89 m/s, 267° | 0 W/m² | - |
| 1778040278 | 21.11° C | 76% | 1019.6 hPa | 0 mm | 1.34 m/s, 240° | 0 W/m² | - |
| 1778039974 | 20.56° C | 76% | 1019.7 hPa | 0 mm | 0.89 m/s, 251° | 0 W/m² | - |
| 1778039672 | 20.56° C | 76% | 1019.4 hPa | 0 mm | 1.34 m/s, 230° | 0 W/m² | - |
| 1778039368 | 20.56° C | 76% | 1019.6 hPa | 0 mm | 0.89 m/s, 278° | 0 W/m² | - |
| 1778039065 | 20.56° C | 75% | 1019.3 hPa | 0 mm | 0.45 m/s, 297° | 0 W/m² | - |
| 1778038762 | 20.56° C | 75% | 1019.3 hPa | 0 mm | 0.89 m/s, 269° | 0 W/m² | - |
| 1778038460 | 20.56° C | 75% | 1019.5 hPa | 0 mm | 1.34 m/s, 254° | 0 W/m² | - |
| 1778038156 | 21.11° C | 74% | 1019.3 hPa | 0 mm | 0.89 m/s, 310° | 0 W/m² | - |
| 1778037854 | 21.11° C | 74% | 1019.6 hPa | 0 mm | 1.34 m/s, 238° | 0 W/m² | - |
| 1778037550 | 20.56° C | 72% | 1019.5 hPa | 0 mm | 0.89 m/s, 254° | 0 W/m² | - |
| 1778037248 | 21.11° C | 72% | 1019.3 hPa | 0 mm | 0.89 m/s, 245° | 0 W/m² | - |
| 1778036945 | 21.11° C | 72% | 1019.4 hPa | 0 mm | 0.45 m/s, 236° | 0 W/m² | - |
| 1778036643 | 20.56° C | 70% | 1019.5 hPa | 0 mm | 0 m/s | 0 W/m² | - |
* Rain latest hour (hover to see other rain measurements)
** Current wind speed in m/s (hover to see current wind gust speed)